Forside
METAR-TAF:

METAR-TAF

Lufthavne :

St. George Municipal Airport

Saint George, Utah, USA

Breddekreds: 37-05N, længdekreds: 113-36W, højde: 896 m

Aktuelle vejr

Denne rapport blev lavet for 38 minutter siden, kl. 06:56 UTC
Vind 4 kt fra syd
Temperatur 9°C
Fugtighed 43%
Tryk 1021 hPa
Sigt: 16.1 km
skyfri

METAR: KSGU 290656Z AUTO 17004KT 10SM CLR 09/M03 A3016 RMK AO2 SLP207 T00891033 401720028

Tid: 00:34 (07:34 UTC)

Vejrudsigter

Denne rapport blev lavet for 2 timer og 14 minutter siden, kl. 05:20 UTC
Foreløbig gælder fra 29 på 06 UTC til 01 på 06 UTC
Vind 4 kt fra varierende retninger
Sigt: 10 km
Spredte skyer i en højde af 8000 ft
Brudte skyer i en højde af 15000 ft

TAF: KSGU 290520Z 2906/0106 VRB04KT P6SM SCT080 BKN150

Vejrobservationer og prognoser fra mere end 4000 lufthavne (METAR og TAF).

De gule og røde prikker repræsenterer de meteorologiske stationer.

Flyt musen over at se navnet på stationen.

Så klik over at se vejr observationer og prognoser.

At skifte det kort: Klik på de grønne knapper med et sort kors for at zoome ind; på den grønne knap med en bindestreg for at zoome ud; eller på de grønne pile for tilstødende kort.


METAR-TAF: